sensor_id;sensor_type;location;lat;lon;timestamp;P1;durP1;ratioP1;P2;durP2;ratioP2
57093;SDS011;42970;50.996;3.706;2023-05-15T00:01:48;58.28;;;24.58;;
57093;SDS011;42970;50.996;3.706;2023-05-15T00:04:13;65.78;;;28.42;;
57093;SDS011;42970;50.996;3.706;2023-05-15T00:06:39;62.75;;;25.83;;
57093;SDS011;42970;50.996;3.706;2023-05-15T00:09:05;57.40;;;26.80;;
57093;SDS011;42970;50.996;3.706;2023-05-15T00:11:30;59.90;;;26.63;;
57093;SDS011;42970;50.996;3.706;2023-05-15T00:13:56;55.35;;;25.52;;
57093;SDS011;42970;50.996;3.706;2023-05-15T00:16:21;49.80;;;24.17;;
57093;SDS011;42970;50.996;3.706;2023-05-15T00:18:48;62.00;;;26.83;;
57093;SDS011;42970;50.996;3.706;2023-05-15T00:21:14;60.80;;;26.25;;
57093;SDS011;42970;50.996;3.706;2023-05-15T00:23:39;57.60;;;27.38;;
57093;SDS011;42970;50.996;3.706;2023-05-15T00:26:05;57.55;;;27.88;;
57093;SDS011;42970;50.996;3.706;2023-05-15T00:28:30;50.22;;;25.85;;
57093;SDS011;42970;50.996;3.706;2023-05-15T00:30:55;58.92;;;27.58;;
57093;SDS011;42970;50.996;3.706;2023-05-15T00:33:21;56.10;;;28.15;;
57093;SDS011;42970;50.996;3.706;2023-05-15T00:35:46;65.10;;;28.95;;
57093;SDS011;42970;50.996;3.706;2023-05-15T00:38:12;60.42;;;26.02;;
57093;SDS011;42970;50.996;3.706;2023-05-15T00:40:38;55.25;;;26.30;;
57093;SDS011;42970;50.996;3.706;2023-05-15T00:43:06;52.30;;;25.40;;
57093;SDS011;42970;50.996;3.706;2023-05-15T00:45:32;64.53;;;26.40;;
57093;SDS011;42970;50.996;3.706;2023-05-15T00:47:58;48.53;;;22.02;;
57093;SDS011;42970;50.996;3.706;2023-05-15T00:50:25;49.10;;;20.25;;
57093;SDS011;42970;50.996;3.706;2023-05-15T00:52:51;49.38;;;21.15;;
57093;SDS011;42970;50.996;3.706;2023-05-15T00:55:17;50.33;;;22.88;;
57093;SDS011;42970;50.996;3.706;2023-05-15T00:57:43;54.10;;;24.80;;
57093;SDS011;42970;50.996;3.706;2023-05-15T01:00:09;55.47;;;23.98;;
57093;SDS011;42970;50.996;3.706;2023-05-15T01:02:36;56.20;;;24.38;;
57093;SDS011;42970;50.996;3.706;2023-05-15T01:05:02;50.50;;;22.58;;
57093;SDS011;42970;50.996;3.706;2023-05-15T01:07:32;55.63;;;24.27;;
57093;SDS011;42970;50.996;3.706;2023-05-15T01:10:04;56.58;;;24.85;;
57093;SDS011;42970;50.996;3.706;2023-05-15T01:12:32;55.05;;;25.17;;
57093;SDS011;42970;50.996;3.706;2023-05-15T01:14:59;56.35;;;25.23;;
57093;SDS011;42970;50.996;3.706;2023-05-15T01:17:25;60.17;;;24.75;;
57093;SDS011;42970;50.996;3.706;2023-05-15T01:19:51;67.72;;;27.70;;
57093;SDS011;42970;50.996;3.706;2023-05-15T01:25:21;51.03;;;24.00;;
57093;SDS011;42970;50.996;3.706;2023-05-15T01:28:01;67.22;;;27.00;;
57093;SDS011;42970;50.996;3.706;2023-05-15T01:30:37;56.90;;;27.38;;
57093;SDS011;42970;50.996;3.706;2023-05-15T01:33:21;63.95;;;26.17;;
57093;SDS011;42970;50.996;3.706;2023-05-15T01:36:00;65.05;;;28.42;;
57093;SDS011;42970;50.996;3.706;2023-05-15T01:41:15;67.35;;;29.13;;
57093;SDS011;42970;50.996;3.706;2023-05-15T01:43:50;65.13;;;28.52;;
57093;SDS011;42970;50.996;3.706;2023-05-15T01:46:20;63.63;;;28.08;;
57093;SDS011;42970;50.996;3.706;2023-05-15T01:48:48;61.40;;;27.92;;
57093;SDS011;42970;50.996;3.706;2023-05-15T01:51:15;59.38;;;26.80;;
57093;SDS011;42970;50.996;3.706;2023-05-15T01:53:42;57.72;;;28.50;;
57093;SDS011;42970;50.996;3.706;2023-05-15T01:56:11;65.32;;;27.05;;
57093;SDS011;42970;50.996;3.706;2023-05-15T01:58:37;52.80;;;22.98;;
57093;SDS011;42970;50.996;3.706;2023-05-15T02:01:04;63.15;;;24.45;;
57093;SDS011;42970;50.996;3.706;2023-05-15T02:03:30;44.03;;;18.00;;
57093;SDS011;42970;50.996;3.706;2023-05-15T02:05:58;36.40;;;17.08;;
57093;SDS011;42970;50.996;3.706;2023-05-15T02:08:26;47.42;;;19.08;;
57093;SDS011;42970;50.996;3.706;2023-05-15T02:10:54;61.17;;;25.25;;
57093;SDS011;42970;50.996;3.706;2023-05-15T02:13:21;69.68;;;26.10;;
57093;SDS011;42970;50.996;3.706;2023-05-15T02:15:49;45.50;;;18.48;;
57093;SDS011;42970;50.996;3.706;2023-05-15T02:18:14;67.85;;;24.25;;
57093;SDS011;42970;50.996;3.706;2023-05-15T02:20:40;90.95;;;31.17;;
57093;SDS011;42970;50.996;3.706;2023-05-15T02:23:05;57.45;;;21.90;;
57093;SDS011;42970;50.996;3.706;2023-05-15T02:28:21;93.47;;;34.75;;
57093;SDS011;42970;50.996;3.706;2023-05-15T02:30:54;79.10;;;24.15;;
57093;SDS011;42970;50.996;3.706;2023-05-15T02:36:32;147.77;;;30.88;;
57093;SDS011;42970;50.996;3.706;2023-05-15T02:39:04;115.07;;;33.08;;
57093;SDS011;42970;50.996;3.706;2023-05-15T02:41:29;97.57;;;30.35;;
57093;SDS011;42970;50.996;3.706;2023-05-15T02:43:57;94.63;;;34.35;;
57093;SDS011;42970;50.996;3.706;2023-05-15T02:46:24;87.90;;;29.33;;
57093;SDS011;42970;50.996;3.706;2023-05-15T02:48:52;102.07;;;31.33;;
57093;SDS011;42970;50.996;3.706;2023-05-15T02:51:18;133.93;;;34.58;;
57093;SDS011;42970;50.996;3.706;2023-05-15T02:53:44;94.82;;;28.83;;
57093;SDS011;42970;50.996;3.706;2023-05-15T02:56:10;124.15;;;29.13;;
57093;SDS011;42970;50.996;3.706;2023-05-15T02:58:35;115.32;;;29.80;;
57093;SDS011;42970;50.996;3.706;2023-05-15T03:01:03;101.57;;;32.00;;
57093;SDS011;42970;50.996;3.706;2023-05-15T03:03:28;138.68;;;34.80;;
57093;SDS011;42970;50.996;3.706;2023-05-15T03:05:54;106.70;;;32.80;;
57093;SDS011;42970;50.996;3.706;2023-05-15T03:08:20;115.10;;;34.67;;
57093;SDS011;42970;50.996;3.706;2023-05-15T03:10:45;124.75;;;37.65;;
57093;SDS011;42970;50.996;3.706;2023-05-15T03:13:10;78.78;;;24.10;;
57093;SDS011;42970;50.996;3.706;2023-05-15T03:15:36;99.03;;;31.20;;
57093;SDS011;42970;50.996;3.706;2023-05-15T03:18:01;103.10;;;27.20;;
57093;SDS011;42970;50.996;3.706;2023-05-15T03:20:27;108.13;;;28.10;;
57093;SDS011;42970;50.996;3.706;2023-05-15T03:22:52;141.27;;;36.22;;
57093;SDS011;42970;50.996;3.706;2023-05-15T03:25:18;120.05;;;33.15;;
57093;SDS011;42970;50.996;3.706;2023-05-15T03:27:43;139.55;;;32.78;;
57093;SDS011;42970;50.996;3.706;2023-05-15T03:30:09;99.82;;;27.95;;
57093;SDS011;42970;50.996;3.706;2023-05-15T03:32:35;120.43;;;30.98;;
57093;SDS011;42970;50.996;3.706;2023-05-15T03:35:00;104.22;;;29.10;;
57093;SDS011;42970;50.996;3.706;2023-05-15T03:37:26;127.50;;;31.25;;
57093;SDS011;42970;50.996;3.706;2023-05-15T03:39:51;100.00;;;27.27;;
57093;SDS011;42970;50.996;3.706;2023-05-15T03:42:16;131.05;;;31.92;;
57093;SDS011;42970;50.996;3.706;2023-05-15T03:44:47;128.23;;;28.67;;
57093;SDS011;42970;50.996;3.706;2023-05-15T03:47:13;107.18;;;27.40;;
57093;SDS011;42970;50.996;3.706;2023-05-15T03:49:39;49.70;;;16.90;;
57093;SDS011;42970;50.996;3.706;2023-05-15T03:52:05;116.53;;;28.90;;
57093;SDS011;42970;50.996;3.706;2023-05-15T03:54:31;110.60;;;26.52;;
57093;SDS011;42970;50.996;3.706;2023-05-15T03:56:56;104.47;;;24.98;;
57093;SDS011;42970;50.996;3.706;2023-05-15T03:59:22;88.85;;;19.45;;
57093;SDS011;42970;50.996;3.706;2023-05-15T04:01:47;94.43;;;28.52;;
57093;SDS011;42970;50.996;3.706;2023-05-15T04:04:13;73.15;;;19.63;;
57093;SDS011;42970;50.996;3.706;2023-05-15T04:06:39;89.60;;;26.10;;
57093;SDS011;42970;50.996;3.706;2023-05-15T04:09:04;88.28;;;23.73;;
57093;SDS011;42970;50.996;3.706;2023-05-15T04:11:30;105.93;;;28.38;;
57093;SDS011;42970;50.996;3.706;2023-05-15T04:13:55;115.28;;;31.25;;
57093;SDS011;42970;50.996;3.706;2023-05-15T04:16:21;113.93;;;30.13;;
57093;SDS011;42970;50.996;3.706;2023-05-15T04:18:46;113.25;;;31.95;;
57093;SDS011;42970;50.996;3.706;2023-05-15T04:21:12;125.72;;;32.15;;
57093;SDS011;42970;50.996;3.706;2023-05-15T04:23:37;98.47;;;25.35;;
57093;SDS011;42970;50.996;3.706;2023-05-15T04:26:05;92.32;;;25.55;;
57093;SDS011;42970;50.996;3.706;2023-05-15T04:28:32;131.27;;;32.22;;
57093;SDS011;42970;50.996;3.706;2023-05-15T04:30:58;114.43;;;29.23;;
57093;SDS011;42970;50.996;3.706;2023-05-15T04:33:23;115.50;;;28.20;;
57093;SDS011;42970;50.996;3.706;2023-05-15T04:35:48;97.80;;;27.40;;
57093;SDS011;42970;50.996;3.706;2023-05-15T04:38:14;134.55;;;31.08;;
57093;SDS011;42970;50.996;3.706;2023-05-15T04:40:40;110.80;;;28.45;;
57093;SDS011;42970;50.996;3.706;2023-05-15T04:43:06;111.07;;;23.23;;
57093;SDS011;42970;50.996;3.706;2023-05-15T04:45:32;102.15;;;26.42;;
57093;SDS011;42970;50.996;3.706;2023-05-15T04:47:57;113.53;;;28.85;;
57093;SDS011;42970;50.996;3.706;2023-05-15T04:50:23;126.13;;;31.30;;
57093;SDS011;42970;50.996;3.706;2023-05-15T04:52:48;65.60;;;19.30;;
57093;SDS011;42970;50.996;3.706;2023-05-15T04:55:14;137.93;;;31.67;;
57093;SDS011;42970;50.996;3.706;2023-05-15T04:57:40;142.75;;;34.25;;
57093;SDS011;42970;50.996;3.706;2023-05-15T05:00:05;151.30;;;34.67;;
57093;SDS011;42970;50.996;3.706;2023-05-15T05:02:38;137.38;;;32.58;;
57093;SDS011;42970;50.996;3.706;2023-05-15T05:05:04;144.70;;;33.40;;
57093;SDS011;42970;50.996;3.706;2023-05-15T05:07:31;121.32;;;30.48;;
57093;SDS011;42970;50.996;3.706;2023-05-15T05:09:57;147.77;;;34.25;;
57093;SDS011;42970;50.996;3.706;2023-05-15T05:12:22;136.25;;;30.48;;
57093;SDS011;42970;50.996;3.706;2023-05-15T05:14:47;156.15;;;34.55;;
57093;SDS011;42970;50.996;3.706;2023-05-15T05:17:13;156.52;;;35.00;;
57093;SDS011;42970;50.996;3.706;2023-05-15T05:19:38;144.27;;;30.98;;
57093;SDS011;42970;50.996;3.706;2023-05-15T05:22:04;152.60;;;31.75;;
57093;SDS011;42970;50.996;3.706;2023-05-15T05:24:30;154.27;;;34.10;;
57093;SDS011;42970;50.996;3.706;2023-05-15T05:26:56;157.10;;;32.47;;
57093;SDS011;42970;50.996;3.706;2023-05-15T05:29:22;162.13;;;34.47;;
57093;SDS011;42970;50.996;3.706;2023-05-15T05:31:48;172.95;;;37.55;;
57093;SDS011;42970;50.996;3.706;2023-05-15T05:34:13;188.48;;;39.55;;
57093;SDS011;42970;50.996;3.706;2023-05-15T05:36:39;168.02;;;37.92;;
57093;SDS011;42970;50.996;3.706;2023-05-15T05:39:05;185.93;;;36.85;;
57093;SDS011;42970;50.996;3.706;2023-05-15T05:41:30;176.10;;;36.38;;
57093;SDS011;42970;50.996;3.706;2023-05-15T05:43:56;182.15;;;39.60;;
57093;SDS011;42970;50.996;3.706;2023-05-15T05:46:21;180.23;;;41.42;;
57093;SDS011;42970;50.996;3.706;2023-05-15T05:48:47;176.52;;;36.08;;
57093;SDS011;42970;50.996;3.706;2023-05-15T05:51:13;207.25;;;41.47;;
57093;SDS011;42970;50.996;3.706;2023-05-15T05:53:39;221.98;;;40.20;;
57093;SDS011;42970;50.996;3.706;2023-05-15T05:56:04;222.30;;;41.85;;
57093;SDS011;42970;50.996;3.706;2023-05-15T05:58:30;201.27;;;42.15;;
57093;SDS011;42970;50.996;3.706;2023-05-15T06:00:55;209.60;;;41.92;;
57093;SDS011;42970;50.996;3.706;2023-05-15T06:03:21;175.60;;;37.38;;
57093;SDS011;42970;50.996;3.706;2023-05-15T06:05:47;212.85;;;40.80;;
57093;SDS011;42970;50.996;3.706;2023-05-15T06:08:12;216.43;;;40.83;;
57093;SDS011;42970;50.996;3.706;2023-05-15T06:10:38;223.05;;;44.03;;
57093;SDS011;42970;50.996;3.706;2023-05-15T06:13:04;203.43;;;39.38;;
57093;SDS011;42970;50.996;3.706;2023-05-15T06:15:29;192.40;;;41.28;;
57093;SDS011;42970;50.996;3.706;2023-05-15T06:17:54;223.35;;;43.78;;
57093;SDS011;42970;50.996;3.706;2023-05-15T06:20:20;191.05;;;39.38;;
57093;SDS011;42970;50.996;3.706;2023-05-15T06:22:47;189.85;;;41.75;;
57093;SDS011;42970;50.996;3.706;2023-05-15T06:25:12;156.95;;;40.33;;
57093;SDS011;42970;50.996;3.706;2023-05-15T06:27:40;138.45;;;36.58;;
57093;SDS011;42970;50.996;3.706;2023-05-15T06:30:07;141.90;;;34.63;;
57093;SDS011;42970;50.996;3.706;2023-05-15T06:32:33;151.45;;;36.42;;
57093;SDS011;42970;50.996;3.706;2023-05-15T06:34:59;170.10;;;38.00;;
57093;SDS011;42970;50.996;3.706;2023-05-15T06:37:25;157.95;;;37.45;;
57093;SDS011;42970;50.996;3.706;2023-05-15T06:39:52;136.57;;;37.05;;
57093;SDS011;42970;50.996;3.706;2023-05-15T06:42:18;139.25;;;33.63;;
57093;SDS011;42970;50.996;3.706;2023-05-15T06:44:43;139.02;;;35.67;;
57093;SDS011;42970;50.996;3.706;2023-05-15T06:47:11;131.95;;;37.47;;
57093;SDS011;42970;50.996;3.706;2023-05-15T06:49:37;138.00;;;35.65;;
57093;SDS011;42970;50.996;3.706;2023-05-15T06:52:02;136.65;;;36.97;;
57093;SDS011;42970;50.996;3.706;2023-05-15T06:54:28;138.00;;;37.03;;
57093;SDS011;42970;50.996;3.706;2023-05-15T06:56:53;130.02;;;35.80;;
57093;SDS011;42970;50.996;3.706;2023-05-15T06:59:19;129.43;;;33.50;;
57093;SDS011;42970;50.996;3.706;2023-05-15T07:01:44;113.28;;;31.13;;
57093;SDS011;42970;50.996;3.706;2023-05-15T07:04:10;141.32;;;34.05;;
57093;SDS011;42970;50.996;3.706;2023-05-15T07:06:36;121.63;;;35.42;;
57093;SDS011;42970;50.996;3.706;2023-05-15T07:09:01;131.73;;;34.28;;
57093;SDS011;42970;50.996;3.706;2023-05-15T07:11:27;129.38;;;34.83;;
57093;SDS011;42970;50.996;3.706;2023-05-15T07:13:53;119.88;;;32.75;;
57093;SDS011;42970;50.996;3.706;2023-05-15T07:16:19;118.07;;;35.10;;
57093;SDS011;42970;50.996;3.706;2023-05-15T07:18:44;112.63;;;33.20;;
57093;SDS011;42970;50.996;3.706;2023-05-15T07:21:10;120.00;;;33.60;;
57093;SDS011;42970;50.996;3.706;2023-05-15T07:23:35;120.63;;;33.78;;
57093;SDS011;42970;50.996;3.706;2023-05-15T07:26:01;101.32;;;34.10;;
57093;SDS011;42970;50.996;3.706;2023-05-15T07:28:26;101.35;;;33.10;;
57093;SDS011;42970;50.996;3.706;2023-05-15T07:30:52;101.13;;;32.63;;
57093;SDS011;42970;50.996;3.706;2023-05-15T07:33:17;94.10;;;30.95;;
57093;SDS011;42970;50.996;3.706;2023-05-15T07:35:43;92.38;;;31.65;;
57093;SDS011;42970;50.996;3.706;2023-05-15T07:38:08;86.28;;;29.50;;
57093;SDS011;42970;50.996;3.706;2023-05-15T07:40:34;90.50;;;29.70;;
57093;SDS011;42970;50.996;3.706;2023-05-15T07:42:59;95.93;;;30.65;;
57093;SDS011;42970;50.996;3.706;2023-05-15T07:45:25;98.38;;;32.35;;
57093;SDS011;42970;50.996;3.706;2023-05-15T07:47:50;91.25;;;31.65;;
57093;SDS011;42970;50.996;3.706;2023-05-15T07:50:16;82.03;;;28.60;;
57093;SDS011;42970;50.996;3.706;2023-05-15T07:52:42;86.15;;;27.83;;
57093;SDS011;42970;50.996;3.706;2023-05-15T07:55:11;85.78;;;28.33;;
57093;SDS011;42970;50.996;3.706;2023-05-15T07:57:36;86.55;;;29.92;;
57093;SDS011;42970;50.996;3.706;2023-05-15T08:00:03;83.50;;;28.60;;
57093;SDS011;42970;50.996;3.706;2023-05-15T08:02:34;87.88;;;30.50;;
57093;SDS011;42970;50.996;3.706;2023-05-15T08:05:00;87.60;;;27.08;;
57093;SDS011;42970;50.996;3.706;2023-05-15T08:07:25;82.93;;;30.42;;
57093;SDS011;42970;50.996;3.706;2023-05-15T08:09:51;74.45;;;25.27;;
57093;SDS011;42970;50.996;3.706;2023-05-15T08:12:17;62.25;;;23.33;;
57093;SDS011;42970;50.996;3.706;2023-05-15T08:14:46;81.72;;;28.30;;
57093;SDS011;42970;50.996;3.706;2023-05-15T08:17:12;79.00;;;28.50;;
57093;SDS011;42970;50.996;3.706;2023-05-15T08:19:38;74.57;;;26.15;;
57093;SDS011;42970;50.996;3.706;2023-05-15T08:22:03;70.35;;;26.05;;
57093;SDS011;42970;50.996;3.706;2023-05-15T08:24:29;43.83;;;18.60;;
57093;SDS011;42970;50.996;3.706;2023-05-15T08:26:54;75.57;;;25.75;;
57093;SDS011;42970;50.996;3.706;2023-05-15T08:29:20;68.20;;;25.75;;
57093;SDS011;42970;50.996;3.706;2023-05-15T08:31:45;73.30;;;25.88;;
57093;SDS011;42970;50.996;3.706;2023-05-15T08:34:10;81.38;;;26.77;;
57093;SDS011;42970;50.996;3.706;2023-05-15T08:36:36;76.20;;;27.33;;
57093;SDS011;42970;50.996;3.706;2023-05-15T08:39:02;74.85;;;24.55;;
57093;SDS011;42970;50.996;3.706;2023-05-15T08:41:31;76.70;;;30.00;;
57093;SDS011;42970;50.996;3.706;2023-05-15T08:43:57;82.18;;;26.50;;
57093;SDS011;42970;50.996;3.706;2023-05-15T08:46:27;55.90;;;22.35;;
57093;SDS011;42970;50.996;3.706;2023-05-15T08:48:53;88.80;;;30.55;;
57093;SDS011;42970;50.996;3.706;2023-05-15T08:51:21;79.82;;;28.10;;
57093;SDS011;42970;50.996;3.706;2023-05-15T08:53:47;82.90;;;25.30;;
57093;SDS011;42970;50.996;3.706;2023-05-15T08:56:13;61.30;;;24.00;;
57093;SDS011;42970;50.996;3.706;2023-05-15T08:58:39;76.38;;;27.13;;
57093;SDS011;42970;50.996;3.706;2023-05-15T09:01:05;72.78;;;25.35;;
57093;SDS011;42970;50.996;3.706;2023-05-15T09:03:32;64.90;;;22.63;;
57093;SDS011;42970;50.996;3.706;2023-05-15T09:05:57;72.80;;;22.35;;
57093;SDS011;42970;50.996;3.706;2023-05-15T09:08:23;71.65;;;27.40;;
57093;SDS011;42970;50.996;3.706;2023-05-15T09:13:17;61.85;;;22.88;;
57093;SDS011;42970;50.996;3.706;2023-05-15T09:15:44;62.22;;;26.00;;
57093;SDS011;42970;50.996;3.706;2023-05-15T09:18:11;51.85;;;20.90;;
57093;SDS011;42970;50.996;3.706;2023-05-15T09:20:38;64.75;;;24.27;;
57093;SDS011;42970;50.996;3.706;2023-05-15T09:23:04;56.20;;;20.00;;
57093;SDS011;42970;50.996;3.706;2023-05-15T17:44:49;9.82;;;2.20;;
57093;SDS011;42970;50.996;3.706;2023-05-15T17:47:14;20.33;;;3.35;;
57093;SDS011;42970;50.996;3.706;2023-05-15T17:49:39;14.60;;;2.92;;
57093;SDS011;42970;50.996;3.706;2023-05-15T17:52:06;7.68;;;2.28;;
57093;SDS011;42970;50.996;3.706;2023-05-15T17:54:31;21.10;;;2.13;;
57093;SDS011;42970;50.996;3.706;2023-05-15T17:56:57;9.50;;;2.55;;
57093;SDS011;42970;50.996;3.706;2023-05-15T17:59:22;6.55;;;2.00;;
57093;SDS011;42970;50.996;3.706;2023-05-15T18:01:48;7.35;;;2.67;;
57093;SDS011;42970;50.996;3.706;2023-05-15T18:04:13;18.10;;;3.40;;
57093;SDS011;42970;50.996;3.706;2023-05-15T18:06:39;15.30;;;2.97;;
57093;SDS011;42970;50.996;3.706;2023-05-15T18:09:05;6.43;;;1.90;;
57093;SDS011;42970;50.996;3.706;2023-05-15T18:11:30;8.00;;;1.80;;
57093;SDS011;42970;50.996;3.706;2023-05-15T18:13:56;7.68;;;1.88;;
57093;SDS011;42970;50.996;3.706;2023-05-15T18:16:21;17.75;;;3.75;;
57093;SDS011;42970;50.996;3.706;2023-05-15T18:18:47;13.32;;;3.15;;
57093;SDS011;42970;50.996;3.706;2023-05-15T18:21:13;11.32;;;2.28;;
57093;SDS011;42970;50.996;3.706;2023-05-15T18:23:39;7.43;;;2.13;;
57093;SDS011;42970;50.996;3.706;2023-05-15T18:26:05;17.65;;;3.33;;
57093;SDS011;42970;50.996;3.706;2023-05-15T18:28:31;13.32;;;3.60;;
57093;SDS011;42970;50.996;3.706;2023-05-15T18:30:56;20.30;;;3.95;;
57093;SDS011;42970;50.996;3.706;2023-05-15T18:33:23;16.00;;;2.92;;
57093;SDS011;42970;50.996;3.706;2023-05-15T18:35:48;22.27;;;4.65;;
57093;SDS011;42970;50.996;3.706;2023-05-15T18:38:14;7.45;;;1.88;;
57093;SDS011;42970;50.996;3.706;2023-05-15T18:40:39;8.18;;;2.28;;
57093;SDS011;42970;50.996;3.706;2023-05-15T18:43:05;16.20;;;1.95;;
57093;SDS011;42970;50.996;3.706;2023-05-15T18:45:30;15.98;;;3.03;;
57093;SDS011;42970;50.996;3.706;2023-05-15T18:47:56;9.35;;;2.03;;
57093;SDS011;42970;50.996;3.706;2023-05-15T18:50:22;9.88;;;2.25;;
57093;SDS011;42970;50.996;3.706;2023-05-15T18:52:49;9.38;;;2.03;;
57093;SDS011;42970;50.996;3.706;2023-05-15T18:55:15;16.10;;;3.05;;
57093;SDS011;42970;50.996;3.706;2023-05-15T18:57:40;6.40;;;2.08;;
57093;SDS011;42970;50.996;3.706;2023-05-15T19:00:06;10.25;;;1.65;;
57093;SDS011;42970;50.996;3.706;2023-05-15T19:02:32;16.73;;;3.05;;
57093;SDS011;42970;50.996;3.706;2023-05-15T19:04:58;12.43;;;2.78;;
57093;SDS011;42970;50.996;3.706;2023-05-15T19:07:25;16.13;;;3.75;;
57093;SDS011;42970;50.996;3.706;2023-05-15T19:09:54;12.35;;;2.80;;
57093;SDS011;42970;50.996;3.706;2023-05-15T19:12:20;9.70;;;2.65;;
57093;SDS011;42970;50.996;3.706;2023-05-15T19:14:45;8.23;;;1.75;;
57093;SDS011;42970;50.996;3.706;2023-05-15T19:17:11;12.80;;;2.83;;
57093;SDS011;42970;50.996;3.706;2023-05-15T19:19:36;14.45;;;3.10;;
57093;SDS011;42970;50.996;3.706;2023-05-15T19:22:02;5.30;;;1.75;;
57093;SDS011;42970;50.996;3.706;2023-05-15T19:24:27;14.20;;;2.67;;
57093;SDS011;42970;50.996;3.706;2023-05-15T19:26:52;11.20;;;2.50;;
57093;SDS011;42970;50.996;3.706;2023-05-15T19:29:18;8.60;;;2.13;;
57093;SDS011;42970;50.996;3.706;2023-05-15T19:31:45;10.32;;;2.33;;
57093;SDS011;42970;50.996;3.706;2023-05-15T19:34:10;10.20;;;1.80;;
57093;SDS011;42970;50.996;3.706;2023-05-15T19:36:36;11.27;;;3.05;;
57093;SDS011;42970;50.996;3.706;2023-05-15T19:39:01;19.73;;;3.92;;
57093;SDS011;42970;50.996;3.706;2023-05-15T19:41:27;20.48;;;2.00;;
57093;SDS011;42970;50.996;3.706;2023-05-15T19:43:52;18.05;;;2.95;;
57093;SDS011;42970;50.996;3.706;2023-05-15T19:46:18;10.00;;;2.35;;
57093;SDS011;42970;50.996;3.706;2023-05-15T19:48:44;15.88;;;2.58;;
57093;SDS011;42970;50.996;3.706;2023-05-15T19:51:10;16.23;;;2.30;;
57093;SDS011;42970;50.996;3.706;2023-05-15T19:53:35;18.08;;;3.92;;
57093;SDS011;42970;50.996;3.706;2023-05-15T19:56:01;9.65;;;2.05;;
57093;SDS011;42970;50.996;3.706;2023-05-15T19:58:28;10.68;;;2.08;;
57093;SDS011;42970;50.996;3.706;2023-05-15T20:00:53;15.68;;;2.55;;
57093;SDS011;42970;50.996;3.706;2023-05-15T20:03:19;11.27;;;2.28;;
57093;SDS011;42970;50.996;3.706;2023-05-15T20:05:45;12.20;;;2.30;;
57093;SDS011;42970;50.996;3.706;2023-05-15T20:08:10;17.35;;;2.78;;
57093;SDS011;42970;50.996;3.706;2023-05-15T20:10:37;14.98;;;2.15;;
57093;SDS011;42970;50.996;3.706;2023-05-15T20:13:02;17.10;;;2.63;;
57093;SDS011;42970;50.996;3.706;2023-05-15T20:15:28;13.85;;;2.28;;
57093;SDS011;42970;50.996;3.706;2023-05-15T20:17:55;11.38;;;2.55;;
57093;SDS011;42970;50.996;3.706;2023-05-15T20:20:21;7.82;;;2.00;;
57093;SDS011;42970;50.996;3.706;2023-05-15T20:22:47;15.95;;;2.10;;
57093;SDS011;42970;50.996;3.706;2023-05-15T20:25:12;5.45;;;1.27;;
57093;SDS011;42970;50.996;3.706;2023-05-15T20:27:39;15.43;;;1.75;;
57093;SDS011;42970;50.996;3.706;2023-05-15T20:30:05;8.45;;;1.77;;
57093;SDS011;42970;50.996;3.706;2023-05-15T20:32:31;13.77;;;1.83;;
57093;SDS011;42970;50.996;3.706;2023-05-15T20:34:57;17.30;;;3.17;;
57093;SDS011;42970;50.996;3.706;2023-05-15T20:37:24;12.00;;;2.45;;
57093;SDS011;42970;50.996;3.706;2023-05-15T20:39:54;15.00;;;2.75;;
57093;SDS011;42970;50.996;3.706;2023-05-15T20:42:20;12.90;;;2.60;;
57093;SDS011;42970;50.996;3.706;2023-05-15T20:44:46;20.95;;;3.25;;
57093;SDS011;42970;50.996;3.706;2023-05-15T20:47:12;11.55;;;2.20;;
57093;SDS011;42970;50.996;3.706;2023-05-15T20:49:37;18.25;;;2.85;;
57093;SDS011;42970;50.996;3.706;2023-05-15T20:52:03;16.95;;;2.30;;
57093;SDS011;42970;50.996;3.706;2023-05-15T20:54:28;16.35;;;2.38;;
57093;SDS011;42970;50.996;3.706;2023-05-15T20:56:54;8.30;;;1.95;;
57093;SDS011;42970;50.996;3.706;2023-05-15T20:59:19;3.92;;;1.65;;
57093;SDS011;42970;50.996;3.706;2023-05-15T21:01:45;20.25;;;2.05;;
57093;SDS011;42970;50.996;3.706;2023-05-15T21:04:10;17.25;;;2.08;;
57093;SDS011;42970;50.996;3.706;2023-05-15T21:06:36;15.90;;;2.80;;
57093;SDS011;42970;50.996;3.706;2023-05-15T21:09:02;27.42;;;1.55;;
57093;SDS011;42970;50.996;3.706;2023-05-15T21:11:27;25.75;;;1.85;;
57093;SDS011;42970;50.996;3.706;2023-05-15T21:13:53;7.18;;;1.67;;
57093;SDS011;42970;50.996;3.706;2023-05-15T21:16:18;11.23;;;1.52;;
57093;SDS011;42970;50.996;3.706;2023-05-15T21:18:44;17.02;;;3.28;;
57093;SDS011;42970;50.996;3.706;2023-05-15T21:21:09;23.25;;;2.05;;
57093;SDS011;42970;50.996;3.706;2023-05-15T21:23:35;10.52;;;1.90;;
57093;SDS011;42970;50.996;3.706;2023-05-15T21:26:01;11.60;;;2.42;;
57093;SDS011;42970;50.996;3.706;2023-05-15T21:28:27;17.52;;;2.67;;
57093;SDS011;42970;50.996;3.706;2023-05-15T21:30:53;7.78;;;1.90;;
57093;SDS011;42970;50.996;3.706;2023-05-15T21:33:18;20.20;;;2.47;;
57093;SDS011;42970;50.996;3.706;2023-05-15T21:35:44;3.20;;;1.40;;
57093;SDS011;42970;50.996;3.706;2023-05-15T21:38:11;18.30;;;2.78;;
57093;SDS011;42970;50.996;3.706;2023-05-15T21:40:36;13.57;;;2.28;;
57093;SDS011;42970;50.996;3.706;2023-05-15T21:43:03;11.88;;;1.88;;
57093;SDS011;42970;50.996;3.706;2023-05-15T21:45:28;10.52;;;2.30;;
57093;SDS011;42970;50.996;3.706;2023-05-15T21:47:54;16.58;;;2.00;;
57093;SDS011;42970;50.996;3.706;2023-05-15T21:50:19;20.05;;;2.67;;
57093;SDS011;42970;50.996;3.706;2023-05-15T21:52:45;8.82;;;2.90;;
57093;SDS011;42970;50.996;3.706;2023-05-15T21:55:10;10.48;;;2.25;;
57093;SDS011;42970;50.996;3.706;2023-05-15T21:57:36;13.55;;;2.05;;
57093;SDS011;42970;50.996;3.706;2023-05-15T22:00:01;12.60;;;3.08;;
57093;SDS011;42970;50.996;3.706;2023-05-15T22:02:28;10.23;;;2.40;;
57093;SDS011;42970;50.996;3.706;2023-05-15T22:04:54;12.20;;;2.20;;
57093;SDS011;42970;50.996;3.706;2023-05-15T22:07:20;16.48;;;2.53;;
57093;SDS011;42970;50.996;3.706;2023-05-15T22:09:45;14.35;;;2.40;;
57093;SDS011;42970;50.996;3.706;2023-05-15T22:12:11;8.23;;;2.08;;
57093;SDS011;42970;50.996;3.706;2023-05-15T22:14:36;19.30;;;2.50;;
57093;SDS011;42970;50.996;3.706;2023-05-15T22:17:01;9.38;;;1.83;;
57093;SDS011;42970;50.996;3.706;2023-05-15T22:19:27;9.80;;;2.53;;
57093;SDS011;42970;50.996;3.706;2023-05-15T22:21:53;11.48;;;1.92;;
57093;SDS011;42970;50.996;3.706;2023-05-15T22:24:18;15.15;;;3.05;;
57093;SDS011;42970;50.996;3.706;2023-05-15T22:26:43;16.95;;;2.42;;
57093;SDS011;42970;50.996;3.706;2023-05-15T22:29:09;20.63;;;2.05;;
57093;SDS011;42970;50.996;3.706;2023-05-15T22:31:34;5.85;;;1.92;;
57093;SDS011;42970;50.996;3.706;2023-05-15T22:34:00;13.55;;;2.30;;
57093;SDS011;42970;50.996;3.706;2023-05-15T22:36:25;11.32;;;2.10;;
57093;SDS011;42970;50.996;3.706;2023-05-15T22:38:51;21.15;;;3.13;;
57093;SDS011;42970;50.996;3.706;2023-05-15T22:41:16;17.02;;;2.85;;
57093;SDS011;42970;50.996;3.706;2023-05-15T22:43:42;16.38;;;2.30;;
57093;SDS011;42970;50.996;3.706;2023-05-15T22:46:07;10.20;;;2.25;;
57093;SDS011;42970;50.996;3.706;2023-05-15T22:48:33;17.90;;;2.37;;
57093;SDS011;42970;50.996;3.706;2023-05-15T22:50:59;27.27;;;2.30;;